Crestline (CTL1, 214) Station Data

Red Flag Warning: No
Fire Weather Zone: 258
SDGE Region: North East
Lat/Lon: 33.308/-116.855

Observations

Time Wind Speed/Gust Temp(F) RH Fuel Moist Fuel Temp(F) Dewpt(F) Tmax(F) Tmin(F) Accum Precip 10-min Precip SL Press(mb)
4/26 2:50am 46 3 G 8 60° 25% - - 24° 60.9° 50.4° - - 1012.0
4/26 2:40am 46 3 G 9 60° 26% - - 24° 60.9° 50.4° - - 1012.0
4/26 2:30am 54 3 G 8 59° 26% - - 25° 60.9° 50.4° - - 1012.0
4/26 2:20am 23 3 G 7 60° 25% - - 25° 60.9° 50.4° - - 1012.0
4/26 2:10am 20 3 G 8 59° 27% - - 25° 60.9° 50.4° - - 1012.0
4/26 2:00am 12 3 G 6 58° 30% - - 27° 60.9° 50.4° - - 1012.0
4/26 1:50am 5 3 G 7 60° 26% - - 25° 60.9° 50.4° - - 1012.0
4/26 1:40am 355 3 G 7 60° 26% - - 25° 60.8° 50.4° - - 1012.0
4/26 1:30am 5 4 G 6 59° 28% - - 26° 60.1° 50.4° - - 1012.0
4/26 1:20am 9 5 G 7 59° 29% - - 27° 60.1° 50.4° - - 1013.0
4/26 1:10am 9 6 G 8 55° 39% - - 30° 57.4° 50.4° - - 1014.0
4/26 1:00am 10 5 G 10 56° 36% - - 30° 57.4° 50.4° - - 1014.0
4/26 12:50am 5 5 G 7 56° 37% - - 30° 56.9° 50.4° - - 1014.0
4/26 12:40am 7 6 G 9 53° 44% - - 32° 54.6° 50.4° - - 1015.0
4/26 12:30am 5 6 G 9 52° 46% - - 32° 53.1° 50.4° - - 1015.0
4/26 12:20am 10 5 G 10 52° 46% - - 32° 53.1° 50.4° - - 1015.0
4/26 12:10am 7 6 G 10 51° 48% - - 32° 52.4° 50.4° - - 1016.0
4/26 12:00am 12 6 G 9 51° 49% - - 33° 52.1° 37.8° - - 1016.0
4/25 11:50pm 358 6 G 11 52° 49% - - 33° 52.1° 37.8° - - 1016.0
4/25 11:40pm 6 5 G 9 51° 50% - - 33° 51.9° 37.8° - - 1016.0
4/25 11:30pm 9 6 G 9 51° 51% - - 33° 51.5° 37.8° - - 1016.0
4/25 11:20pm 9 5 G 8 50° 52% - - 34° 50.9° 37.8° - - 1016.0
4/25 11:10pm 4 6 G 11 49° 56% - - 34° 50.6° 37.8° - - 1017.0
4/25 11:00pm 12 6 G 8 48° 59% - - 34° 48.7° 37.8° - - 1017.0
4/25 10:50pm 23 5 G 11 48° 59% - - 34° 48.7° 37.8° - - 1017.0
4/25 10:40pm 20 4 G 9 47° 62% - - 35° 48.7° 37.8° - - 1017.0
4/25 10:30pm 14 5 G 10 47° 62% - - 35° 48.7° 37.8° - - 1017.0
4/25 10:20pm 22 5 G 10 47° 64% - - 36° 48.7° 37.8° - - 1017.0
4/25 10:10pm 7 7 G 11 46° 68% - - 36° 48.7° 37.8° - - 1017.0
4/25 10:00pm 12 8 G 13 46° 69% - - 36° 48.7° 37.8° - - 1017.0
4/25 9:50pm 9 7 G 13 46° 71% - - 37° 48.7° 37.8° - - 1018.0
4/25 9:40pm 5 7 G 11 45° 72% - - 37° 48.7° 37.8° - - 1018.0
4/25 9:30pm 354 5 G 11 45° 75% - - 38° 48.7° 37.8° - - 1018.0
4/25 9:20pm 359 4 G 11 45° 79% - - 39° 48.7° 37.8° - - 1018.0
4/25 9:10pm 324 4 G 9 45° 80% - - 40° 48.7° 37.8° - - 1018.0
4/25 9:00pm 331 4 G 10 45° 81% - - 40° 48.7° 37.8° - - 1017.0
4/25 8:50pm 341 4 G 10 45° 83% - - 40° 48.7° 37.8° - - 1017.0
4/25 8:40pm 353 5 G 12 45° 83% - - 40° 48.7° 37.8° - - 1017.0
4/25 8:30pm 348 6 G 12 45° 82% - - 40° 48.7° 37.8° - - 1017.0
4/25 8:20pm 352 5 G 12 45° 82% - - 40° 48.7° 37.8° - - 1017.0
4/25 8:10pm 350 6 G 12 45° 83% - - 40° 48.7° 37.8° - - 1016.0
4/25 8:00pm 342 5 G 11 45° 83% - - 40° 48.7° 37.8° - - 1016.0
4/25 7:50pm 358 8 G 13 45° 82% - - 40° 48.7° 37.8° - - 1016.0
4/25 7:40pm 6 8 G 15 45° 81% - - 40° 48.7° 37.8° - - 1016.0
4/25 7:30pm 3 6 G 11 45° 82% - - 40° 48.7° 37.8° - - 1016.0
4/25 7:20pm 1 6 G 10 46° 83% - - 41° 48.7° 37.8° - - 1016.0
4/25 7:10pm 354 5 G 12 46° 82% - - 41° 48.7° 37.8° - - 1016.0
4/25 7:00pm 352 5 G 9 47° 80% - - 41° 48.7° 37.8° - - 1016.0
4/25 6:50pm 340 4 G 11 47° 78% - - 41° 48.7° 37.8° - - 1015.0
4/25 6:40pm 322 3 G 8 48° 78% - - 41° 48.7° 37.8° - - 1015.0
4/25 6:30pm 343 4 G 9 48° 78% - - 41° 48.7° 37.8° - - 1015.0
4/25 6:20pm 305 3 G 8 47° 84% - - 42° 48.7° 37.8° - - 1015.0
4/25 6:10pm 278 3 G 9 46° 91% - - 44° 48.7° 37.8° - - 1016.0
4/25 6:00pm 236 2 G 7 47° 89% - - 44° 48.7° 37.8° - - 1015.0
4/25 5:50pm 290 3 G 8 47° 84% - - 43° 48.7° 37.8° - - 1015.0
4/25 5:40pm 308 3 G 10 48° 79% - - 42° 48.7° 37.8° - - 1015.0
4/25 5:30pm 326 4 G 11 48° 80% - - 42° 48.7° 37.8° - - 1015.0
4/25 5:20pm 293 5 G 10 47° 89% - - 44° 48.7° 37.8° - - 1015.0
4/25 5:10pm 267 3 G 7 46° 97% - - 45° 48.7° 37.8° - - 1016.0
4/25 5:00pm 249 3 G 5 46° 96% - - 45° 48.7° 37.8° - - 1016.0
4/25 4:50pm 226 2 G 6 46° 96% - - 45° 48.7° 37.8° - - 1015.0
4/25 4:40pm 241 3 G 6 46° 97% - - 45° 48.7° 37.8° - - 1016.0
4/25 4:30pm 241 2 G 4 46° 97% - - 45° 48.7° 37.8° - - 1016.0
4/25 4:20pm 248 2 G 7 46° 95% - - 45° 48.7° 37.8° - - 1015.0
4/25 4:10pm 221 2 G 7 48° 92% - - 46° 48.7° 37.8° - - 1015.0
4/25 4:00pm 240 2 G 5 47° 94% - - 46° 48.6° 37.8° - - 1015.0
4/25 3:50pm 238 2 G 5 48° 94% - - 46° 48.6° 37.8° - - 1015.0
4/25 3:40pm 256 2 G 4 47° 97% - - 46° 48° 37.8° - - 1016.0
4/25 3:30pm 239 2 G 5 46° 96% - - 45° 48° 37.8° - - 1016.0
4/25 3:20pm 253 2 G 5 47° 96% - - 46° 48° 37.8° - - 1016.0
4/25 3:10pm 248 3 G 7 47° 96% - - 46° 48° 37.8° - - 1016.0
4/25 3:00pm 263 4 G 7 46° 98% - - 46° 48° 37.8° - - 1016.0
4/25 2:50pm 238 2 G 6 45° 98% - - 45° 48° 37.8° - - 1016.0
4/25 2:40pm 239 2 G 6 45° 98% - - 45° 48° 37.8° - - 1016.0
4/25 2:30pm 223 2 G 5 46° 97% - - 45° 48° 37.8° - - 1016.0
4/25 2:20pm 238 2 G 8 46° 96% - - 45° 48° 37.8° - - 1016.0
4/25 2:10pm 256 3 G 10 46° 95% - - 45° 48° 37.8° - - 1016.0
4/25 2:00pm 238 3 G 7 47° 95% - - 46° 48° 37.8° - - 1016.0
4/25 1:50pm 237 2 G 7 46° 95% - - 45° 48° 37.8° - - 1017.0
4/25 1:40pm 248 2 G 7 47° 95% - - 45° 48° 37.8° - - 1016.0
4/25 1:30pm 246 2 G 6 46° 94% - - 45° 48° 37.8° - - 1017.0
4/25 1:20pm 239 2 G 5 47° 92% - - 45° 48° 37.8° - - 1016.0
4/25 1:10pm 242 3 G 9 47° 90% - - 45° 48° 37.8° - - 1016.0
4/25 1:00pm 232 3 G 7 47° 90% - - 44° 47.6° 37.8° - - 1016.0
4/25 12:50pm 245 3 G 7 46° 93% - - 44° 47.2° 37.8° - - 1017.0
4/25 12:40pm 244 3 G 8 46° 93% - - 44° 46.8° 37.8° - - 1017.0
4/25 12:30pm 261 5 G 10 46° 95% - - 44° 46.8° 37.8° - - 1017.0
4/25 12:20pm 252 2 G 9 45° 97% - - 44° 46.5° 37.8° - - 1017.0
4/25 12:10pm 244 3 G 7 44° 97% - - 44° 46.5° 37.8° - - 1017.0
4/25 12:00pm 241 3 G 5 45° 96% - - 43° 46.5° 37.8° - - 1017.0
4/25 11:50am 216 2 G 6 46° 94% - - 44° 46.5° 37.8° - - 1017.0
4/25 11:40am 254 2 G 7 46° 94% - - 44° 46.4° 37.8° - - 1017.0
4/25 11:30am 249 2 G 6 45° 94% - - 44° 46.4° 37.8° - - 1017.0
4/25 11:20am 241 2 G 5 46° 95% - - 44° 46.4° 37.8° - - 1017.0
4/25 11:10am 263 3 G 8 44° 97% - - 43° 45° 37.8° - - 1017.0
4/25 11:00am 259 3 G 7 44° 97% - - 43° 44.8° 37.8° - - 1017.0
4/25 10:50am 250 2 G 4 43° 97% - - 43° 44.6° 37.8° - - 1018.0
4/25 10:40am 224 2 G 4 43° 97% - - 42° 44.6° 37.8° - - 1017.0
4/25 10:30am 236 2 G 6 43° 97% - - 43° 44.6° 37.8° - - 1017.0
4/25 10:20am 249 3 G 7 44° 97% - - 43° 44.6° 37.8° - - 1017.0
4/25 10:10am 254 2 G 7 43° 97% - - 42° 44.4° 37.8° - - 1017.0
4/25 10:00am 243 3 G 6 43° 97% - - 42° 44.4° 37.8° - - 1017.0
4/25 9:50am 247 2 G 6 43° 96% - - 42° 44.4° 37.8° - - 1017.0
4/25 9:40am 241 3 G 8 43° 93% - - 42° 44.4° 37.8° - - 1017.0
4/25 9:30am 256 3 G 7 43° 92% - - 41° 44.4° 37.8° - - 1016.0
4/25 9:20am 250 3 G 7 42° 96% - - 41° 43.5° 37.8° - - 1017.0
4/25 9:10am 247 3 G 8 42° 96% - - 41° 43.5° 37.8° - - 1017.0
4/25 9:00am 247 3 G 9 42° 97% - - 41° 43.5° 37.8° - - 1017.0
4/25 8:50am 255 3 G 9 42° 96% - - 41° 43.5° 37.8° - - 1017.0
4/25 8:40am 261 4 G 11 42° 85% - - 38° 43.5° 37.8° - - 1016.0
4/25 8:30am 292 9 G 23 43° 69% - - 33° 43.3° 37.8° - - 1016.0
4/25 8:20am 293 9 G 18 42° 73% - - 34° 43.2° 37.8° - - 1016.0
4/25 8:10am 281 7 G 15 42° 79% - - 36° 42.4° 37.8° - - 1016.0
4/25 8:00am 293 8 G 16 41° 83% - - 36° 41.8° 37.8° - - 1016.0
4/25 7:50am 284 6 G 15 40° 94% - - 38° 41.8° 37.8° - - 1017.0
4/25 7:40am 270 4 G 9 40° 95% - - 38° 41.8° 37.8° - - 1017.0
4/25 7:30am 282 7 G 17 40° 94% - - 38° 41.8° 37.8° - - 1017.0
4/25 7:20am 286 9 G 21 39° 98% - - 38° 41.8° 37.8° - - 1017.0
4/25 7:10am 298 9 G 17 38° 98% - - 38° 41.8° 37.8° - - 1017.0
4/25 7:00am 296 10 G 19 38° 99% - - 38° 41.8° 37.8° - - 1017.0
4/25 6:50am 291 8 G 15 38° 99% - - 38° 41.8° 37.8° - - 1016.0
4/25 6:40am 287 8 G 18 39° 99% - - 38° 41.8° 38.2° - - 1016.0
4/25 6:30am 290 8 G 15 39° 99% - - 39° 41.8° 38.5° - - 1016.0
4/25 6:20am 285 7 G 15 39° 99% - - 39° 41.8° 38.6° - - 1016.0
4/25 6:10am 295 7 G 18 39° 99% - - 39° 41.8° 38.7° - - 1016.0
4/25 6:00am 290 8 G 20 40° 99% - - 39° 41.8° 39.1° - - 1015.0
4/25 5:50am 280 6 G 16 40° 99% - - 39° 41.8° 39.1° - - 1015.0
4/25 5:40am 293 6 G 17 40° 99% - - 39° 41.8° 39.1° - - 1015.0
4/25 5:30am 292 10 G 20 40° 99% - - 39° 41.8° 39.1° - - 1015.0
4/25 5:20am 284 8 G 15 40° 99% - - 39° 41.8° 39.4° - - 1015.0
4/25 5:10am 297 8 G 16 40° 99% - - 39° 41.8° 39.4° - - 1015.0
4/25 5:00am 288 8 G 13 40° 99% - - 39° 41.8° 39.4° - - 1015.0
4/25 4:50am 293 7 G 15 40° 99% - - 39° 41.8° 39.4° - - 1015.0
4/25 4:40am 304 8 G 17 40° 99% - - 40° 41.8° 39.5° - - 1015.0
4/25 4:30am 294 8 G 17 40° 99% - - 40° 41.8° 39.6° - - 1015.0
4/25 4:20am 281 8 G 21 40° 99% - - 40° 41.8° 39.6° - - 1015.0
4/25 4:10am 284 8 G 18 40° 99% - - 40° 41.8° 39.6° - - 1015.0
4/25 4:00am 289 8 G 19 40° 99% - - 40° 41.8° 39.6° - - 1015.0
4/25 3:50am 281 6 G 19 40° 99% - - 40° 41.8° 39.6° - - 1015.0
4/25 3:40am 284 8 G 17 40° 99% - - 40° 41.8° 39.6° - - 1015.0
4/25 3:30am 281 6 G 17 40° 99% - - 40° 41.8° 39.9° - - 1015.0
4/25 3:20am 282 7 G 14 40° 99% - - 40° 41.8° 39.9° - - 1015.0
4/25 3:10am 291 8 G 17 40° 99% - - 40° 41.8° 39.9° - - 1015.0
4/25 3:00am 274 7 G 14 40° 99% - - 40° 41.8° 39.9° - - 1015.0
4/25 2:50am 286 7 G 17 40° 99% - - 40° 41.8° 40° - - 1015.0
4/25 2:40am 286 9 G 21 41° 99% - - 40° 41.8° 40.2° - - 1015.0
4/25 2:30am 292 9 G 21 41° 99% - - 40° 41.8° 40.3° - - 1015.0
4/25 2:20am 285 10 G 18 41° 99% - - 40° 41.8° 40.3° - - 1015.0
4/25 2:10am 277 9 G 20 41° 99% - - 40° 41.8° 40.3° - - 1015.0
4/25 2:00am 273 8 G 21 41° 99% - - 40° 41.8° 40.3° - - 1015.0
4/25 1:50am 291 8 G 14 41° 99% - - 40° 41.8° 40.3° - - 1015.0
4/25 1:40am 298 9 G 18 41° 99% - - 40° 41.8° 40.3° - - 1015.0
4/25 1:30am 293 9 G 22 41° 99% - - 40° 41.8° 40.4° - - 1016.0
4/25 1:20am 282 8 G 18 41° 99% - - 40° 41.8° 40.4° - - 1016.0
4/25 1:10am 286 7 G 13 41° 99% - - 40° 41.8° 40.4° - - 1016.0
4/25 1:00am 290 9 G 17 41° 99% - - 40° 41.8° 40.4° - - 1016.0
4/25 12:50am 294 7 G 15 41° 99% - - 40° 41.8° 40.4° - - 1016.0
4/25 12:40am 287 6 G 12 41° 99% - - 41° 41.8° 40.6° - - 1016.0
4/25 12:30am 291 7 G 12 41° 99% - - 41° 41.8° 40.6° - - 1016.0
4/25 12:20am 301 9 G 20 41° 99% - - 41° 41.8° 40.6° - - 1016.0
4/25 12:10am 314 9 G 18 41° 99% - - 41° 41.6° 40.6° - - 1016.0
4/25 12:00am 303 8 G 15 41° 99% - - 41° 58.1° 40.6° - - 1016.0
4/24 11:50pm 278 6 G 15 41° 99% - - 41° 58.1° 40.7° - - 1016.0
4/24 11:40pm 264 5 G 12 41° 99% - - 41° 58.1° 40.9° - - 1016.0
4/24 11:30pm 274 5 G 13 42° 99% - - 41° 58.1° 41.2° - - 1016.0
4/24 11:20pm 287 8 G 19 42° 99% - - 41° 58.1° 41.2° - - 1017.0
4/24 11:10pm 289 6 G 13 42° 99% - - 41° 58.1° 41.2° - - 1017.0
4/24 11:00pm 286 6 G 11 42° 99% - - 42° 58.1° 41.5° - - 1017.0
4/24 10:50pm 286 7 G 13 42° 99% - - 42° 58.1° 41.9° - - 1016.0
4/24 10:40pm 287 6 G 12 42° 99% - - 42° 58.1° 41.9° - - 1016.0
4/24 10:30pm 284 7 G 13 42° 99% - - 42° 58.1° 41.9° - - 1016.0
4/24 10:20pm 279 5 G 11 42° 99% - - 42° 58.1° 41.9° - - 1016.0
4/24 10:10pm 265 3 G 11 42° 99% - - 42° 58.1° 42.1° - - 1016.0
4/24 10:00pm 262 3 G 7 43° 99% - - 42° 58.1° 42.1° - - 1016.0
4/24 9:50pm 262 3 G 7 43° 99% - - 42° 58.1° 42.3° - - 1016.0
4/24 9:40pm 271 3 G 8 43° 99% - - 43° 58.1° 42.3° - - 1016.0
4/24 9:30pm 268 2 G 7 43° 99% - - 43° 58.1° 42.3° - - 1016.0
4/24 9:20pm 282 7 G 14 43° 99% - - 43° 58.1° 42.3° - - 1016.0
4/24 9:10pm 280 5 G 12 43° 99% - - 42° 58.1° 42.3° - - 1016.0
4/24 9:00pm 269 6 G 14 43° 99% - - 42° 58.1° 42.3° - - 1016.0
4/24 8:50pm 234 2 G 7 43° 99% - - 42° 58.1° 42.4° - - 1016.0
4/24 8:40pm 236 2 G 7 43° 99% - - 42° 58.1° 42.4° - - 1016.0
4/24 8:30pm 238 2 G 7 43° 99% - - 42° 58.1° 42.5° - - 1016.0
4/24 8:20pm 263 2 G 7 43° 99% - - 43° 58.1° 42.6° - - 1016.0
4/24 8:10pm 242 2 G 6 43° 99% - - 43° 58.1° 42.9° - - 1016.0
4/24 8:00pm 236 2 G 5 44° 98% - - 43° 58.1° 43.2° - - 1016.0
4/24 7:50pm 246 2 G 7 44° 98% - - 43° 58.1° 43.2° - - 1016.0
4/24 7:40pm 237 2 G 5 44° 98% - - 43° 58.1° 43.3° - - 1016.0
4/24 7:30pm 248 2 G 7 44° 98% - - 44° 58.1° 43.9° - - 1016.0
4/24 7:20pm 259 3 G 7 44° 98% - - 44° 58.1° 43.9° - - 1016.0
4/24 7:10pm 254 2 G 7 44° 98% - - 44° 58.1° 43.9° - - 1016.0
4/24 7:00pm 262 3 G 11 45° 98% - - 44° 58.1° 43.9° - - 1016.0
4/24 6:50pm 257 2 G 7 45° 98% - - 44° 58.1° 43.9° - - 1016.0
4/24 6:40pm 255 3 G 9 45° 98% - - 44° 58.1° 43.9° - - 1016.0
4/24 6:30pm 258 4 G 10 44° 97% - - 43° 58.1° 43.9° - - 1016.0
4/24 6:20pm 247 3 G 11 44° 97% - - 44° 58.1° 44° - - 1016.0
4/24 6:10pm 266 4 G 10 44° 97% - - 44° 58.1° 44° - - 1016.0
4/24 6:00pm 245 2 G 9 45° 97% - - 44° 58.1° 44.7° - - 1016.0